sensor_id;sensor_type;location;lat;lon;timestamp;P1;durP1;ratioP1;P2;durP2;ratioP2
68234;SDS011;55052;52.056;5.296;2023-04-23T00:01:12;53.70;;;30.20;;
68234;SDS011;55052;52.056;5.296;2023-04-23T00:03:40;55.58;;;31.60;;
68234;SDS011;55052;52.056;5.296;2023-04-23T00:06:09;55.55;;;32.00;;
68234;SDS011;55052;52.056;5.296;2023-04-23T00:08:39;58.47;;;32.95;;
68234;SDS011;55052;52.056;5.296;2023-04-23T00:11:07;59.38;;;32.40;;
68234;SDS011;55052;52.056;5.296;2023-04-23T00:13:35;57.90;;;32.88;;
68234;SDS011;55052;52.056;5.296;2023-04-23T00:16:02;63.20;;;34.65;;
68234;SDS011;55052;52.056;5.296;2023-04-23T00:18:29;63.83;;;34.03;;
68234;SDS011;55052;52.056;5.296;2023-04-23T00:20:56;60.40;;;33.08;;
68234;SDS011;55052;52.056;5.296;2023-04-23T00:23:23;64.93;;;34.97;;
68234;SDS011;55052;52.056;5.296;2023-04-23T00:25:50;62.65;;;33.40;;
68234;SDS011;55052;52.056;5.296;2023-04-23T00:28:17;60.78;;;32.85;;
68234;SDS011;55052;52.056;5.296;2023-04-23T00:30:47;58.25;;;31.80;;
68234;SDS011;55052;52.056;5.296;2023-04-23T00:33:13;59.20;;;32.67;;
68234;SDS011;55052;52.056;5.296;2023-04-23T00:35:40;56.30;;;31.55;;
68234;SDS011;55052;52.056;5.296;2023-04-23T00:38:07;60.75;;;33.30;;
68234;SDS011;55052;52.056;5.296;2023-04-23T00:40:34;60.67;;;32.20;;
68234;SDS011;55052;52.056;5.296;2023-04-23T00:43:01;57.97;;;32.10;;
68234;SDS011;55052;52.056;5.296;2023-04-23T00:45:29;60.40;;;32.97;;
68234;SDS011;55052;52.056;5.296;2023-04-23T00:47:56;57.67;;;32.47;;
68234;SDS011;55052;52.056;5.296;2023-04-23T00:50:24;59.38;;;32.17;;
68234;SDS011;55052;52.056;5.296;2023-04-23T00:52:51;54.90;;;31.23;;
68234;SDS011;55052;52.056;5.296;2023-04-23T00:55:17;59.92;;;33.30;;
68234;SDS011;55052;52.056;5.296;2023-04-23T00:57:46;62.38;;;33.60;;
68234;SDS011;55052;52.056;5.296;2023-04-23T01:00:13;61.35;;;32.90;;
68234;SDS011;55052;52.056;5.296;2023-04-23T01:02:40;60.35;;;32.25;;
68234;SDS011;55052;52.056;5.296;2023-04-23T01:05:09;62.13;;;33.47;;
68234;SDS011;55052;52.056;5.296;2023-04-23T01:07:39;60.13;;;33.13;;
68234;SDS011;55052;52.056;5.296;2023-04-23T01:10:06;62.67;;;32.95;;
68234;SDS011;55052;52.056;5.296;2023-04-23T01:12:34;59.60;;;33.03;;
68234;SDS011;55052;52.056;5.296;2023-04-23T01:15:01;62.38;;;33.20;;
68234;SDS011;55052;52.056;5.296;2023-04-23T01:17:29;59.65;;;32.67;;
68234;SDS011;55052;52.056;5.296;2023-04-23T01:19:57;63.42;;;33.45;;
68234;SDS011;55052;52.056;5.296;2023-04-23T01:22:24;61.75;;;34.60;;
68234;SDS011;55052;52.056;5.296;2023-04-23T01:24:51;60.70;;;32.17;;
68234;SDS011;55052;52.056;5.296;2023-04-23T01:27:18;58.75;;;31.63;;
68234;SDS011;55052;52.056;5.296;2023-04-23T01:29:46;65.55;;;33.72;;
68234;SDS011;55052;52.056;5.296;2023-04-23T01:32:14;59.63;;;33.05;;
68234;SDS011;55052;52.056;5.296;2023-04-23T01:34:41;61.15;;;33.13;;
68234;SDS011;55052;52.056;5.296;2023-04-23T01:37:09;63.15;;;34.55;;
68234;SDS011;55052;52.056;5.296;2023-04-23T01:39:36;58.75;;;32.47;;
68234;SDS011;55052;52.056;5.296;2023-04-23T01:42:03;59.40;;;32.05;;
68234;SDS011;55052;52.056;5.296;2023-04-23T01:44:32;60.45;;;32.55;;
68234;SDS011;55052;52.056;5.296;2023-04-23T01:46:59;58.78;;;31.42;;
68234;SDS011;55052;52.056;5.296;2023-04-23T01:49:25;60.13;;;33.30;;
68234;SDS011;55052;52.056;5.296;2023-04-23T01:51:52;63.80;;;33.90;;
68234;SDS011;55052;52.056;5.296;2023-04-23T01:54:19;58.45;;;31.65;;
68234;SDS011;55052;52.056;5.296;2023-04-23T01:56:46;61.50;;;32.97;;
68234;SDS011;55052;52.056;5.296;2023-04-23T01:59:13;60.97;;;32.65;;
68234;SDS011;55052;52.056;5.296;2023-04-23T02:01:40;61.63;;;33.42;;
68234;SDS011;55052;52.056;5.296;2023-04-23T02:04:09;62.50;;;33.30;;
68234;SDS011;55052;52.056;5.296;2023-04-23T02:06:38;63.60;;;33.60;;
68234;SDS011;55052;52.056;5.296;2023-04-23T02:09:06;59.03;;;31.42;;
68234;SDS011;55052;52.056;5.296;2023-04-23T02:11:33;56.78;;;30.77;;
68234;SDS011;55052;52.056;5.296;2023-04-23T02:14:01;57.92;;;31.60;;
68234;SDS011;55052;52.056;5.296;2023-04-23T02:16:28;63.63;;;33.40;;
68234;SDS011;55052;52.056;5.296;2023-04-23T02:18:56;57.15;;;31.58;;
68234;SDS011;55052;52.056;5.296;2023-04-23T02:21:23;57.35;;;31.52;;
68234;SDS011;55052;52.056;5.296;2023-04-23T02:23:51;60.95;;;33.00;;
68234;SDS011;55052;52.056;5.296;2023-04-23T02:26:18;51.30;;;28.75;;
68234;SDS011;55052;52.056;5.296;2023-04-23T02:28:45;59.80;;;31.35;;
68234;SDS011;55052;52.056;5.296;2023-04-23T02:31:12;58.67;;;32.08;;
68234;SDS011;55052;52.056;5.296;2023-04-23T02:33:40;57.97;;;31.95;;
68234;SDS011;55052;52.056;5.296;2023-04-23T02:36:07;57.75;;;30.52;;
68234;SDS011;55052;52.056;5.296;2023-04-23T02:38:37;57.90;;;31.80;;
68234;SDS011;55052;52.056;5.296;2023-04-23T02:41:07;54.92;;;30.20;;
68234;SDS011;55052;52.056;5.296;2023-04-23T02:43:34;56.28;;;31.05;;
68234;SDS011;55052;52.056;5.296;2023-04-23T02:46:00;57.03;;;30.73;;
68234;SDS011;55052;52.056;5.296;2023-04-23T02:48:37;54.50;;;30.80;;
68234;SDS011;55052;52.056;5.296;2023-04-23T02:51:06;57.67;;;31.85;;
68234;SDS011;55052;52.056;5.296;2023-04-23T02:53:34;58.40;;;31.10;;
68234;SDS011;55052;52.056;5.296;2023-04-23T02:56:01;59.30;;;30.13;;
68234;SDS011;55052;52.056;5.296;2023-04-23T02:58:28;54.88;;;30.17;;
68234;SDS011;55052;52.056;5.296;2023-04-23T03:00:56;57.10;;;31.90;;
68234;SDS011;55052;52.056;5.296;2023-04-23T03:03:23;54.45;;;30.95;;
68234;SDS011;55052;52.056;5.296;2023-04-23T03:05:52;58.40;;;30.15;;
68234;SDS011;55052;52.056;5.296;2023-04-23T03:08:19;52.17;;;28.70;;
68234;SDS011;55052;52.056;5.296;2023-04-23T03:10:46;57.13;;;30.20;;
68234;SDS011;55052;52.056;5.296;2023-04-23T03:13:13;55.10;;;28.67;;
68234;SDS011;55052;52.056;5.296;2023-04-23T03:15:40;56.15;;;29.73;;
68234;SDS011;55052;52.056;5.296;2023-04-23T03:18:07;54.45;;;28.38;;
68234;SDS011;55052;52.056;5.296;2023-04-23T03:20:34;50.35;;;28.80;;
68234;SDS011;55052;52.056;5.296;2023-04-23T03:23:01;48.70;;;27.83;;
68234;SDS011;55052;52.056;5.296;2023-04-23T03:25:28;49.10;;;26.38;;
68234;SDS011;55052;52.056;5.296;2023-04-23T03:27:55;50.80;;;27.98;;
68234;SDS011;55052;52.056;5.296;2023-04-23T03:30:22;47.17;;;26.08;;
68234;SDS011;55052;52.056;5.296;2023-04-23T03:32:49;46.83;;;26.58;;
68234;SDS011;55052;52.056;5.296;2023-04-23T03:35:16;48.88;;;26.45;;
68234;SDS011;55052;52.056;5.296;2023-04-23T03:37:42;44.85;;;24.90;;
68234;SDS011;55052;52.056;5.296;2023-04-23T03:40:09;43.92;;;25.13;;
68234;SDS011;55052;52.056;5.296;2023-04-23T03:42:36;45.13;;;25.35;;
68234;SDS011;55052;52.056;5.296;2023-04-23T03:45:03;45.42;;;25.00;;
68234;SDS011;55052;52.056;5.296;2023-04-23T03:47:30;44.53;;;25.42;;
68234;SDS011;55052;52.056;5.296;2023-04-23T03:49:57;42.10;;;24.40;;
68234;SDS011;55052;52.056;5.296;2023-04-23T03:52:23;42.20;;;24.48;;
68234;SDS011;55052;52.056;5.296;2023-04-23T03:54:50;40.85;;;24.63;;
68234;SDS011;55052;52.056;5.296;2023-04-23T03:57:17;42.75;;;24.67;;
68234;SDS011;55052;52.056;5.296;2023-04-23T03:59:45;44.20;;;23.15;;
68234;SDS011;55052;52.056;5.296;2023-04-23T04:02:12;39.95;;;23.42;;
68234;SDS011;55052;52.056;5.296;2023-04-23T04:04:38;39.63;;;23.33;;
68234;SDS011;55052;52.056;5.296;2023-04-23T04:07:08;42.00;;;23.50;;
68234;SDS011;55052;52.056;5.296;2023-04-23T04:09:37;40.25;;;22.92;;
68234;SDS011;55052;52.056;5.296;2023-04-23T04:12:05;39.00;;;23.33;;
68234;SDS011;55052;52.056;5.296;2023-04-23T04:14:32;36.72;;;23.00;;
68234;SDS011;55052;52.056;5.296;2023-04-23T04:16:59;37.03;;;21.33;;
68234;SDS011;55052;52.056;5.296;2023-04-23T04:19:26;37.47;;;22.00;;
68234;SDS011;55052;52.056;5.296;2023-04-23T04:21:52;35.58;;;21.45;;
68234;SDS011;55052;52.056;5.296;2023-04-23T04:24:19;38.58;;;22.33;;
68234;SDS011;55052;52.056;5.296;2023-04-23T04:26:48;37.93;;;21.67;;
68234;SDS011;55052;52.056;5.296;2023-04-23T04:29:17;41.63;;;22.48;;
68234;SDS011;55052;52.056;5.296;2023-04-23T04:31:46;35.80;;;22.02;;
68234;SDS011;55052;52.056;5.296;2023-04-23T04:34:14;36.38;;;21.50;;
68234;SDS011;55052;52.056;5.296;2023-04-23T04:36:40;33.53;;;21.00;;
68234;SDS011;55052;52.056;5.296;2023-04-23T04:39:07;36.58;;;21.77;;
68234;SDS011;55052;52.056;5.296;2023-04-23T04:41:35;34.58;;;21.08;;
68234;SDS011;55052;52.056;5.296;2023-04-23T04:44:02;38.63;;;22.35;;
68234;SDS011;55052;52.056;5.296;2023-04-23T04:46:29;35.30;;;21.95;;
68234;SDS011;55052;52.056;5.296;2023-04-23T04:48:57;34.83;;;21.80;;
68234;SDS011;55052;52.056;5.296;2023-04-23T04:51:24;36.10;;;21.25;;
68234;SDS011;55052;52.056;5.296;2023-04-23T04:53:51;37.30;;;22.63;;
68234;SDS011;55052;52.056;5.296;2023-04-23T04:56:18;34.40;;;20.98;;
68234;SDS011;55052;52.056;5.296;2023-04-23T04:58:45;34.42;;;20.92;;
68234;SDS011;55052;52.056;5.296;2023-04-23T05:01:11;33.58;;;20.08;;
68234;SDS011;55052;52.056;5.296;2023-04-23T05:03:38;33.35;;;21.00;;
68234;SDS011;55052;52.056;5.296;2023-04-23T05:06:05;31.65;;;19.85;;
68234;SDS011;55052;52.056;5.296;2023-04-23T05:08:32;33.15;;;19.92;;
68234;SDS011;55052;52.056;5.296;2023-04-23T05:10:59;31.75;;;19.13;;
68234;SDS011;55052;52.056;5.296;2023-04-23T05:13:26;32.53;;;20.48;;
68234;SDS011;55052;52.056;5.296;2023-04-23T05:15:53;32.13;;;19.95;;
68234;SDS011;55052;52.056;5.296;2023-04-23T05:18:20;28.60;;;18.90;;
68234;SDS011;55052;52.056;5.296;2023-04-23T05:20:47;33.60;;;18.85;;
68234;SDS011;55052;52.056;5.296;2023-04-23T05:23:13;30.30;;;19.30;;
68234;SDS011;55052;52.056;5.296;2023-04-23T05:25:40;30.25;;;19.15;;
68234;SDS011;55052;52.056;5.296;2023-04-23T05:28:07;29.75;;;19.00;;
68234;SDS011;55052;52.056;5.296;2023-04-23T05:30:34;29.05;;;18.63;;
68234;SDS011;55052;52.056;5.296;2023-04-23T05:33:01;28.67;;;19.02;;
68234;SDS011;55052;52.056;5.296;2023-04-23T05:35:28;29.52;;;18.95;;
68234;SDS011;55052;52.056;5.296;2023-04-23T05:37:57;28.80;;;18.83;;
68234;SDS011;55052;52.056;5.296;2023-04-23T05:40:23;30.48;;;19.38;;
68234;SDS011;55052;52.056;5.296;2023-04-23T05:42:50;28.60;;;19.38;;
68234;SDS011;55052;52.056;5.296;2023-04-23T05:45:17;30.10;;;18.88;;
68234;SDS011;55052;52.056;5.296;2023-04-23T05:47:44;31.05;;;19.67;;
68234;SDS011;55052;52.056;5.296;2023-04-23T05:50:10;31.85;;;19.58;;
68234;SDS011;55052;52.056;5.296;2023-04-23T05:52:37;28.25;;;18.85;;
68234;SDS011;55052;52.056;5.296;2023-04-23T05:55:05;26.77;;;18.65;;
68234;SDS011;55052;52.056;5.296;2023-04-23T05:57:34;28.88;;;18.60;;
68234;SDS011;55052;52.056;5.296;2023-04-23T06:00:02;25.33;;;17.75;;
68234;SDS011;55052;52.056;5.296;2023-04-23T06:02:30;27.75;;;19.05;;
68234;SDS011;55052;52.056;5.296;2023-04-23T06:04:59;32.50;;;19.55;;
68234;SDS011;55052;52.056;5.296;2023-04-23T06:07:27;31.33;;;20.40;;
68234;SDS011;55052;52.056;5.296;2023-04-23T06:09:53;27.60;;;18.52;;
68234;SDS011;55052;52.056;5.296;2023-04-23T06:12:20;28.67;;;17.95;;
68234;SDS011;55052;52.056;5.296;2023-04-23T06:14:47;27.00;;;18.55;;
68234;SDS011;55052;52.056;5.296;2023-04-23T06:17:14;29.67;;;18.52;;
68234;SDS011;55052;52.056;5.296;2023-04-23T06:19:40;26.85;;;18.38;;
68234;SDS011;55052;52.056;5.296;2023-04-23T06:22:07;28.58;;;18.75;;
68234;SDS011;55052;52.056;5.296;2023-04-23T06:24:34;27.55;;;18.38;;
68234;SDS011;55052;52.056;5.296;2023-04-23T06:27:01;24.60;;;16.95;;
68234;SDS011;55052;52.056;5.296;2023-04-23T06:29:28;23.58;;;16.77;;
68234;SDS011;55052;52.056;5.296;2023-04-23T06:31:55;26.73;;;17.50;;
68234;SDS011;55052;52.056;5.296;2023-04-23T06:34:22;25.05;;;17.20;;
68234;SDS011;55052;52.056;5.296;2023-04-23T06:36:49;23.52;;;16.75;;
68234;SDS011;55052;52.056;5.296;2023-04-23T06:39:17;25.08;;;16.15;;
68234;SDS011;55052;52.056;5.296;2023-04-23T06:41:43;24.60;;;16.75;;
68234;SDS011;55052;52.056;5.296;2023-04-23T06:44:10;23.90;;;16.13;;
68234;SDS011;55052;52.056;5.296;2023-04-23T06:46:37;23.27;;;16.17;;
68234;SDS011;55052;52.056;5.296;2023-04-23T06:49:04;21.73;;;14.98;;
68234;SDS011;55052;52.056;5.296;2023-04-23T06:51:31;20.75;;;14.32;;
68234;SDS011;55052;52.056;5.296;2023-04-23T06:53:57;19.90;;;13.90;;
68234;SDS011;55052;52.056;5.296;2023-04-23T06:56:24;18.77;;;13.50;;
68234;SDS011;55052;52.056;5.296;2023-04-23T06:58:52;21.25;;;14.05;;
68234;SDS011;55052;52.056;5.296;2023-04-23T07:01:19;19.23;;;12.80;;
68234;SDS011;55052;52.056;5.296;2023-04-23T07:03:46;19.88;;;13.73;;
68234;SDS011;55052;52.056;5.296;2023-04-23T07:06:14;20.13;;;13.95;;
68234;SDS011;55052;52.056;5.296;2023-04-23T07:08:44;19.92;;;13.88;;
68234;SDS011;55052;52.056;5.296;2023-04-23T07:11:11;20.70;;;13.30;;
68234;SDS011;55052;52.056;5.296;2023-04-23T07:13:38;20.02;;;13.48;;
68234;SDS011;55052;52.056;5.296;2023-04-23T07:16:05;18.45;;;13.25;;
68234;SDS011;55052;52.056;5.296;2023-04-23T07:18:32;18.90;;;12.07;;
68234;SDS011;55052;52.056;5.296;2023-04-23T07:20:58;20.02;;;12.43;;
68234;SDS011;55052;52.056;5.296;2023-04-23T07:23:25;17.73;;;11.85;;
68234;SDS011;55052;52.056;5.296;2023-04-23T07:25:52;15.48;;;11.30;;
68234;SDS011;55052;52.056;5.296;2023-04-23T07:28:19;19.38;;;11.73;;
68234;SDS011;55052;52.056;5.296;2023-04-23T07:30:45;18.80;;;11.48;;
68234;SDS011;55052;52.056;5.296;2023-04-23T07:33:12;16.48;;;11.35;;
68234;SDS011;55052;52.056;5.296;2023-04-23T07:35:39;18.65;;;12.23;;
68234;SDS011;55052;52.056;5.296;2023-04-23T07:38:06;15.20;;;10.38;;
68234;SDS011;55052;52.056;5.296;2023-04-23T07:40:32;15.18;;;10.20;;
68234;SDS011;55052;52.056;5.296;2023-04-23T07:42:59;15.20;;;10.27;;
68234;SDS011;55052;52.056;5.296;2023-04-23T07:45:26;14.65;;;9.32;;
68234;SDS011;55052;52.056;5.296;2023-04-23T07:47:53;16.73;;;10.43;;
68234;SDS011;55052;52.056;5.296;2023-04-23T07:50:20;16.90;;;10.45;;
68234;SDS011;55052;52.056;5.296;2023-04-23T07:52:46;14.80;;;9.55;;
68234;SDS011;55052;52.056;5.296;2023-04-23T07:55:13;16.35;;;9.73;;
68234;SDS011;55052;52.056;5.296;2023-04-23T07:57:40;17.60;;;9.73;;
68234;SDS011;55052;52.056;5.296;2023-04-23T08:00:07;16.48;;;8.75;;
68234;SDS011;55052;52.056;5.296;2023-04-23T08:02:34;13.35;;;8.70;;
68234;SDS011;55052;52.056;5.296;2023-04-23T08:05:01;13.88;;;8.32;;
68234;SDS011;55052;52.056;5.296;2023-04-23T08:07:28;12.02;;;8.30;;
68234;SDS011;55052;52.056;5.296;2023-04-23T08:09:55;12.40;;;8.23;;
68234;SDS011;55052;52.056;5.296;2023-04-23T08:12:27;14.32;;;9.10;;
68234;SDS011;55052;52.056;5.296;2023-04-23T08:14:55;15.45;;;8.40;;
68234;SDS011;55052;52.056;5.296;2023-04-23T08:17:23;14.23;;;7.80;;
68234;SDS011;55052;52.056;5.296;2023-04-23T08:19:50;14.48;;;8.45;;
68234;SDS011;55052;52.056;5.296;2023-04-23T08:22:17;14.68;;;7.90;;
68234;SDS011;55052;52.056;5.296;2023-04-23T08:24:45;11.13;;;6.85;;
68234;SDS011;55052;52.056;5.296;2023-04-23T08:27:12;10.93;;;5.97;;
68234;SDS011;55052;52.056;5.296;2023-04-23T08:29:38;12.32;;;6.70;;
68234;SDS011;55052;52.056;5.296;2023-04-23T08:32:06;14.60;;;7.30;;
68234;SDS011;55052;52.056;5.296;2023-04-23T08:34:33;14.75;;;6.63;;
68234;SDS011;55052;52.056;5.296;2023-04-23T08:37:01;14.65;;;6.72;;
68234;SDS011;55052;52.056;5.296;2023-04-23T08:39:27;13.30;;;5.90;;
68234;SDS011;55052;52.056;5.296;2023-04-23T08:41:57;12.52;;;6.40;;
68234;SDS011;55052;52.056;5.296;2023-04-23T08:44:33;13.27;;;6.13;;
68234;SDS011;55052;52.056;5.296;2023-04-23T08:47:03;11.77;;;5.72;;
68234;SDS011;55052;52.056;5.296;2023-04-23T08:49:32;11.88;;;5.63;;
68234;SDS011;55052;52.056;5.296;2023-04-23T08:52:04;13.70;;;5.65;;
68234;SDS011;55052;52.056;5.296;2023-04-23T08:54:41;12.18;;;5.90;;
68234;SDS011;55052;52.056;5.296;2023-04-23T08:57:13;9.88;;;5.07;;
68234;SDS011;55052;52.056;5.296;2023-04-23T08:59:43;10.77;;;5.32;;
68234;SDS011;55052;52.056;5.296;2023-04-23T09:02:11;10.77;;;5.97;;
68234;SDS011;55052;52.056;5.296;2023-04-23T09:04:40;13.05;;;5.93;;
68234;SDS011;55052;52.056;5.296;2023-04-23T09:07:07;11.90;;;6.13;;
68234;SDS011;55052;52.056;5.296;2023-04-23T09:09:37;14.70;;;5.93;;
68234;SDS011;55052;52.056;5.296;2023-04-23T09:12:05;10.10;;;5.13;;
68234;SDS011;55052;52.056;5.296;2023-04-23T09:14:33;13.52;;;5.18;;
68234;SDS011;55052;52.056;5.296;2023-04-23T09:17:01;10.98;;;4.95;;
68234;SDS011;55052;52.056;5.296;2023-04-23T09:19:28;15.45;;;5.63;;
68234;SDS011;55052;52.056;5.296;2023-04-23T09:21:58;11.37;;;4.60;;
68234;SDS011;55052;52.056;5.296;2023-04-23T09:24:27;10.15;;;4.55;;
68234;SDS011;55052;52.056;5.296;2023-04-23T09:26:54;13.32;;;4.07;;
68234;SDS011;55052;52.056;5.296;2023-04-23T09:29:22;13.25;;;4.63;;
68234;SDS011;55052;52.056;5.296;2023-04-23T09:31:50;9.88;;;4.28;;
68234;SDS011;55052;52.056;5.296;2023-04-23T09:34:20;10.33;;;4.17;;
68234;SDS011;55052;52.056;5.296;2023-04-23T09:36:49;9.67;;;4.43;;
68234;SDS011;55052;52.056;5.296;2023-04-23T09:39:17;10.68;;;4.53;;
68234;SDS011;55052;52.056;5.296;2023-04-23T09:41:46;11.23;;;4.63;;
68234;SDS011;55052;52.056;5.296;2023-04-23T09:44:17;10.27;;;4.13;;
68234;SDS011;55052;52.056;5.296;2023-04-23T09:46:44;11.85;;;4.03;;
68234;SDS011;55052;52.056;5.296;2023-04-23T09:49:12;12.63;;;3.95;;
68234;SDS011;55052;52.056;5.296;2023-04-23T09:51:41;11.57;;;4.00;;
68234;SDS011;55052;52.056;5.296;2023-04-23T09:56:41;10.15;;;3.45;;
68234;SDS011;55052;52.056;5.296;2023-04-23T09:59:27;10.98;;;3.30;;
68234;SDS011;55052;52.056;5.296;2023-04-23T10:02:13;6.18;;;3.03;;
68234;SDS011;55052;52.056;5.296;2023-04-23T10:04:40;12.75;;;3.88;;
68234;SDS011;55052;52.056;5.296;2023-04-23T10:07:08;10.88;;;4.13;;
68234;SDS011;55052;52.056;5.296;2023-04-23T10:09:41;11.02;;;3.25;;
68234;SDS011;55052;52.056;5.296;2023-04-23T10:12:09;10.98;;;3.50;;
68234;SDS011;55052;52.056;5.296;2023-04-23T10:14:53;9.40;;;3.60;;
68234;SDS011;55052;52.056;5.296;2023-04-23T10:17:22;12.18;;;3.40;;
68234;SDS011;55052;52.056;5.296;2023-04-23T10:19:49;11.60;;;3.83;;
68234;SDS011;55052;52.056;5.296;2023-04-23T10:22:17;8.02;;;3.70;;
68234;SDS011;55052;52.056;5.296;2023-04-23T10:24:46;11.90;;;3.30;;
68234;SDS011;55052;52.056;5.296;2023-04-23T10:27:22;8.02;;;3.10;;
68234;SDS011;55052;52.056;5.296;2023-04-23T10:30:05;9.65;;;3.40;;
68234;SDS011;55052;52.056;5.296;2023-04-23T10:32:33;13.05;;;3.40;;
68234;SDS011;55052;52.056;5.296;2023-04-23T10:35:01;8.63;;;2.92;;
68234;SDS011;55052;52.056;5.296;2023-04-23T10:37:27;7.68;;;3.20;;
68234;SDS011;55052;52.056;5.296;2023-04-23T10:39:55;8.43;;;3.03;;
68234;SDS011;55052;52.056;5.296;2023-04-23T10:42:29;11.23;;;2.65;;
68234;SDS011;55052;52.056;5.296;2023-04-23T10:44:57;10.30;;;2.92;;
68234;SDS011;55052;52.056;5.296;2023-04-23T10:47:33;10.65;;;2.78;;
68234;SDS011;55052;52.056;5.296;2023-04-23T10:50:16;10.85;;;3.10;;
68234;SDS011;55052;52.056;5.296;2023-04-23T10:52:44;8.23;;;2.50;;
68234;SDS011;55052;52.056;5.296;2023-04-23T10:55:18;9.43;;;2.47;;
68234;SDS011;55052;52.056;5.296;2023-04-23T11:00:26;6.97;;;2.13;;
68234;SDS011;55052;52.056;5.296;2023-04-23T11:02:54;10.45;;;2.92;;
68234;SDS011;55052;52.056;5.296;2023-04-23T11:05:21;8.48;;;2.60;;
68234;SDS011;55052;52.056;5.296;2023-04-23T11:08:04;5.75;;;1.80;;
68234;SDS011;55052;52.056;5.296;2023-04-23T11:10:50;8.10;;;2.05;;
68234;SDS011;55052;52.056;5.296;2023-04-23T11:13:21;8.77;;;2.10;;
68234;SDS011;55052;52.056;5.296;2023-04-23T11:18:53;9.73;;;2.60;;
68234;SDS011;55052;52.056;5.296;2023-04-23T11:24:42;8.38;;;2.30;;
68234;SDS011;55052;52.056;5.296;2023-04-23T11:27:13;5.72;;;1.95;;
68234;SDS011;55052;52.056;5.296;2023-04-23T11:29:44;6.07;;;1.98;;
68234;SDS011;55052;52.056;5.296;2023-04-23T11:32:12;11.13;;;2.43;;
68234;SDS011;55052;52.056;5.296;2023-04-23T11:34:42;7.40;;;2.17;;
68234;SDS011;55052;52.056;5.296;2023-04-23T11:37:10;8.43;;;2.10;;
68234;SDS011;55052;52.056;5.296;2023-04-23T11:39:39;8.00;;;2.20;;
68234;SDS011;55052;52.056;5.296;2023-04-23T11:42:10;11.10;;;2.30;;
68234;SDS011;55052;52.056;5.296;2023-04-23T11:44:42;6.90;;;2.10;;
68234;SDS011;55052;52.056;5.296;2023-04-23T11:47:14;6.82;;;2.35;;
68234;SDS011;55052;52.056;5.296;2023-04-23T11:49:42;7.57;;;2.00;;
68234;SDS011;55052;52.056;5.296;2023-04-23T11:52:10;9.50;;;1.98;;
68234;SDS011;55052;52.056;5.296;2023-04-23T11:54:39;8.52;;;1.90;;
68234;SDS011;55052;52.056;5.296;2023-04-23T11:57:06;9.43;;;2.65;;
68234;SDS011;55052;52.056;5.296;2023-04-23T11:59:33;8.35;;;2.13;;
68234;SDS011;55052;52.056;5.296;2023-04-23T12:02:00;7.07;;;2.00;;
68234;SDS011;55052;52.056;5.296;2023-04-23T12:04:28;6.30;;;2.47;;
68234;SDS011;55052;52.056;5.296;2023-04-23T12:06:56;7.25;;;2.15;;
68234;SDS011;55052;52.056;5.296;2023-04-23T12:09:25;5.05;;;1.88;;
68234;SDS011;55052;52.056;5.296;2023-04-23T12:11:53;4.70;;;1.83;;
68234;SDS011;55052;52.056;5.296;2023-04-23T12:14:25;7.35;;;2.00;;
68234;SDS011;55052;52.056;5.296;2023-04-23T12:16:54;5.53;;;2.03;;
68234;SDS011;55052;52.056;5.296;2023-04-23T12:19:26;5.50;;;2.00;;
68234;SDS011;55052;52.056;5.296;2023-04-23T12:21:55;6.43;;;2.08;;
68234;SDS011;55052;52.056;5.296;2023-04-23T12:24:28;10.80;;;2.33;;
68234;SDS011;55052;52.056;5.296;2023-04-23T12:26:57;10.77;;;2.33;;
68234;SDS011;55052;52.056;5.296;2023-04-23T12:29:27;7.72;;;2.03;;
68234;SDS011;55052;52.056;5.296;2023-04-23T12:31:57;6.68;;;1.95;;
68234;SDS011;55052;52.056;5.296;2023-04-23T12:34:24;8.60;;;2.10;;
68234;SDS011;55052;52.056;5.296;2023-04-23T12:36:52;6.60;;;1.70;;
68234;SDS011;55052;52.056;5.296;2023-04-23T12:41:50;5.55;;;1.83;;
68234;SDS011;55052;52.056;5.296;2023-04-23T12:44:21;6.78;;;2.08;;
68234;SDS011;55052;52.056;5.296;2023-04-23T12:46:49;7.45;;;2.25;;
68234;SDS011;55052;52.056;5.296;2023-04-23T12:49:22;6.75;;;1.92;;
68234;SDS011;55052;52.056;5.296;2023-04-23T12:51:50;6.47;;;1.85;;
68234;SDS011;55052;52.056;5.296;2023-04-23T12:54:17;7.07;;;1.55;;
68234;SDS011;55052;52.056;5.296;2023-04-23T12:56:44;6.28;;;1.80;;
68234;SDS011;55052;52.056;5.296;2023-04-23T12:59:11;4.28;;;1.80;;
68234;SDS011;55052;52.056;5.296;2023-04-23T13:01:38;5.60;;;1.80;;
68234;SDS011;55052;52.056;5.296;2023-04-23T13:04:05;4.97;;;1.77;;
68234;SDS011;55052;52.056;5.296;2023-04-23T13:06:31;5.38;;;1.92;;
68234;SDS011;55052;52.056;5.296;2023-04-23T13:08:58;4.63;;;1.95;;
68234;SDS011;55052;52.056;5.296;2023-04-23T13:11:28;6.63;;;1.80;;
68234;SDS011;55052;52.056;5.296;2023-04-23T13:13:55;8.38;;;2.67;;
68234;SDS011;55052;52.056;5.296;2023-04-23T13:16:22;5.13;;;1.80;;
68234;SDS011;55052;52.056;5.296;2023-04-23T13:18:49;7.28;;;1.90;;
68234;SDS011;55052;52.056;5.296;2023-04-23T13:21:18;6.75;;;1.75;;
68234;SDS011;55052;52.056;5.296;2023-04-23T13:23:45;3.55;;;1.58;;
68234;SDS011;55052;52.056;5.296;2023-04-23T13:26:12;7.00;;;1.90;;
68234;SDS011;55052;52.056;5.296;2023-04-23T13:28:39;4.60;;;1.70;;
68234;SDS011;55052;52.056;5.296;2023-04-23T13:31:06;5.03;;;1.77;;
68234;SDS011;55052;52.056;5.296;2023-04-23T13:33:33;6.30;;;1.70;;
68234;SDS011;55052;52.056;5.296;2023-04-23T13:36:00;6.20;;;1.88;;
68234;SDS011;55052;52.056;5.296;2023-04-23T13:38:27;7.10;;;2.22;;
68234;SDS011;55052;52.056;5.296;2023-04-23T13:40:54;4.47;;;1.60;;
68234;SDS011;55052;52.056;5.296;2023-04-23T13:43:21;5.25;;;1.70;;
68234;SDS011;55052;52.056;5.296;2023-04-23T13:45:48;10.57;;;1.95;;
68234;SDS011;55052;52.056;5.296;2023-04-23T13:48:15;5.60;;;1.77;;
68234;SDS011;55052;52.056;5.296;2023-04-23T13:50:41;4.63;;;2.08;;
68234;SDS011;55052;52.056;5.296;2023-04-23T13:53:10;7.10;;;1.90;;
68234;SDS011;55052;52.056;5.296;2023-04-23T13:55:37;5.45;;;1.60;;
68234;SDS011;55052;52.056;5.296;2023-04-23T13:58:04;4.80;;;1.83;;
68234;SDS011;55052;52.056;5.296;2023-04-23T14:00:32;6.13;;;1.73;;
68234;SDS011;55052;52.056;5.296;2023-04-23T14:02:59;7.00;;;1.73;;
68234;SDS011;55052;52.056;5.296;2023-04-23T14:05:26;5.53;;;1.60;;
68234;SDS011;55052;52.056;5.296;2023-04-23T14:07:53;10.68;;;2.47;;
68234;SDS011;55052;52.056;5.296;2023-04-23T14:10:19;5.40;;;1.70;;
68234;SDS011;55052;52.056;5.296;2023-04-23T14:12:46;5.63;;;1.63;;
68234;SDS011;55052;52.056;5.296;2023-04-23T14:15:14;6.10;;;1.65;;
68234;SDS011;55052;52.056;5.296;2023-04-23T14:17:42;5.47;;;1.67;;
68234;SDS011;55052;52.056;5.296;2023-04-23T14:20:10;5.88;;;1.55;;
68234;SDS011;55052;52.056;5.296;2023-04-23T14:25:08;7.20;;;1.67;;
68234;SDS011;55052;52.056;5.296;2023-04-23T14:27:44;4.90;;;1.80;;
68234;SDS011;55052;52.056;5.296;2023-04-23T14:30:15;8.48;;;1.63;;
68234;SDS011;55052;52.056;5.296;2023-04-23T14:32:45;5.28;;;1.60;;
68234;SDS011;55052;52.056;5.296;2023-04-23T14:35:15;6.15;;;1.73;;
68234;SDS011;55052;52.056;5.296;2023-04-23T14:37:42;5.65;;;1.58;;
68234;SDS011;55052;52.056;5.296;2023-04-23T14:40:11;5.50;;;1.70;;
68234;SDS011;55052;52.056;5.296;2023-04-23T14:45:07;4.10;;;1.60;;
68234;SDS011;55052;52.056;5.296;2023-04-23T14:47:34;5.47;;;1.60;;
68234;SDS011;55052;52.056;5.296;2023-04-23T14:50:01;8.02;;;1.77;;
68234;SDS011;55052;52.056;5.296;2023-04-23T14:52:28;4.68;;;1.80;;
68234;SDS011;55052;52.056;5.296;2023-04-23T14:54:56;6.28;;;1.77;;